Time;durP1;ratioP1;P1;durP2;ratioP2;P2;SDS_P1;SDS_P2;PMS_P1;PMS_P2;Temp;Humidity;BMP_temperature;BMP_pressure;BME280_temperature;BME280_humidity;BME280_pressure;Samples;Min_cycle;Max_cycle;Signal;HPM_P1;HPM_P2
2023/02/24 00:00:51;;;;;;;96.20;51.55;;;8.90;99.90;;;;;;2088463;28;20021;-71
2023/02/24 00:02:03;;;;;;;95.38;49.67;;;8.90;99.90;;;;;;2086224;28;20581;-70
2023/02/24 00:03:05;;;;;;;95.13;51.05;;;8.80;99.90;;;;;;2075975;28;20521;-70
2023/02/24 00:04:09;;;;;;;98.38;51.67;;;8.80;99.90;;;;;;2079802;28;20534;-70
2023/02/24 00:05:09;;;;;;;93.35;50.15;;;8.90;99.90;;;;;;2073060;28;20102;-72
2023/02/24 00:06:11;;;;;;;96.28;50.92;;;8.90;99.90;;;;;;2078398;28;20046;-72
2023/02/24 00:07:11;;;;;;;93.07;49.28;;;8.90;99.90;;;;;;2075062;28;20033;-72
2023/02/24 00:08:12;;;;;;;96.68;51.67;;;8.90;99.90;;;;;;2081061;28;20035;-72
2023/02/24 00:09:14;;;;;;;93.88;49.50;;;8.90;99.90;;;;;;2082721;28;20508;-72
2023/02/24 00:10:19;;;;;;;90.22;48.45;;;8.90;99.90;;;;;;2084434;28;20495;-72
2023/02/24 00:11:20;;;;;;;87.63;47.20;;;8.90;99.90;;;;;;2079640;28;20030;-72
2023/02/24 00:12:21;;;;;;;82.55;45.05;;;8.90;99.90;;;;;;2079603;28;20033;-72
2023/02/24 00:13:21;;;;;;;94.03;49.60;;;8.90;99.90;;;;;;2075689;28;20437;-72
2023/02/24 00:14:24;;;;;;;93.97;50.15;;;8.90;99.90;;;;;;2077783;28;20033;-73
2023/02/24 00:15:25;;;;;;;91.20;48.53;;;8.90;99.90;;;;;;2076339;28;20108;-72
2023/02/24 00:16:25;;;;;;;98.38;52.35;;;8.90;99.90;;;;;;2077993;28;20041;-70
2023/02/24 00:17:29;;;;;;;98.70;51.90;;;8.90;99.90;;;;;;2076734;28;20026;-72
2023/02/24 00:18:33;;;;;;;100.80;52.60;;;8.90;99.90;;;;;;2081764;28;20132;-72
2023/02/24 00:19:35;;;;;;;105.55;54.72;;;8.90;99.90;;;;;;2083470;28;20037;-72
2023/02/24 00:20:36;;;;;;;113.07;58.80;;;8.90;99.90;;;;;;2074234;28;20029;-72
2023/02/24 00:21:36;;;;;;;115.03;59.85;;;8.90;99.90;;;;;;2081749;28;20563;-73
2023/02/24 00:22:40;;;;;;;113.75;57.78;;;8.90;99.90;;;;;;2075384;28;20556;-72
2023/02/24 00:23:45;;;;;;;111.32;57.17;;;8.90;99.90;;;;;;2071818;28;20191;-72
2023/02/24 00:24:46;;;;;;;109.45;57.05;;;8.90;99.90;;;;;;2081357;28;20029;-72
2023/02/24 00:25:46;;;;;;;120.32;62.38;;;8.90;99.90;;;;;;2074274;28;20250;-72
2023/02/24 00:26:55;;;;;;;111.63;58.50;;;8.90;99.90;;;;;;2078814;28;20120;-72
2023/02/24 00:28:00;;;;;;;125.53;62.65;;;8.90;99.90;;;;;;2079239;28;20025;-72
2023/02/24 00:29:04;;;;;;;112.50;58.38;;;8.80;99.90;;;;;;2075095;28;20120;-72
2023/02/24 00:30:06;;;;;;;106.40;57.28;;;8.80;99.90;;;;;;2077725;28;20025;-72
2023/02/24 00:31:10;;;;;;;121.30;61.70;;;8.80;99.90;;;;;;2078240;28;20120;-72
2023/02/24 00:32:13;;;;;;;120.72;62.35;;;8.80;99.90;;;;;;2081781;28;20040;-72
2023/02/24 00:33:14;;;;;;;123.35;63.05;;;8.80;99.90;;;;;;2076972;28;20152;-72
2023/02/24 00:34:14;;;;;;;116.75;60.95;;;8.80;99.90;;;;;;2075675;28;20025;-72
2023/02/24 00:35:15;;;;;;;113.75;58.90;;;8.80;99.90;;;;;;2081693;28;20021;-72
2023/02/24 00:36:23;;;;;;;120.15;58.72;;;8.80;99.90;;;;;;2076451;28;20435;-72
2023/02/24 00:37:24;;;;;;;119.20;61.42;;;8.80;99.90;;;;;;2074554;28;20030;-73
2023/02/24 00:38:25;;;;;;;118.20;60.33;;;8.80;99.90;;;;;;2081068;28;20037;-72
2023/02/24 00:39:31;;;;;;;117.45;60.30;;;8.80;99.90;;;;;;2094209;28;20039;-72
2023/02/24 00:40:36;;;;;;;118.35;59.17;;;8.80;99.90;;;;;;2086953;28;20670;-72
2023/02/24 00:41:40;;;;;;;113.03;57.78;;;8.80;99.90;;;;;;2069965;28;20021;-71
2023/02/24 00:42:43;;;;;;;111.43;57.25;;;8.80;99.90;;;;;;2068479;28;20075;-72
2023/02/24 00:43:48;;;;;;;105.85;55.25;;;8.80;99.90;;;;;;2069881;28;20037;-70
2023/02/24 00:44:48;;;;;;;112.18;57.83;;;8.80;99.90;;;;;;2068858;28;20029;-71
2023/02/24 00:45:50;;;;;;;114.43;58.92;;;8.80;99.90;;;;;;2078330;28;20028;-70
2023/02/24 00:46:50;;;;;;;114.72;58.72;;;8.80;99.90;;;;;;2081010;28;20490;-70
2023/02/24 00:47:51;;;;;;;109.28;58.17;;;8.80;99.90;;;;;;2087454;28;20090;-70
2023/02/24 00:48:54;;;;;;;112.25;58.60;;;8.80;99.90;;;;;;2091059;28;20629;-70
2023/02/24 00:49:54;;;;;;;112.55;58.33;;;8.80;99.90;;;;;;2078971;28;20029;-70
2023/02/24 00:50:55;;;;;;;119.45;60.22;;;8.80;99.90;;;;;;2079271;28;20205;-70
2023/02/24 00:51:55;;;;;;;113.88;59.63;;;8.80;99.90;;;;;;2077388;28;20037;-70
2023/02/24 00:52:56;;;;;;;114.20;58.95;;;8.70;99.90;;;;;;2084040;28;20039;-72
2023/02/24 00:53:57;;;;;;;114.53;57.72;;;8.70;99.90;;;;;;2075159;28;20580;-72
2023/02/24 00:54:57;;;;;;;111.70;58.55;;;8.70;99.90;;;;;;2074496;28;20026;-71
2023/02/24 00:55:59;;;;;;;113.35;59.50;;;8.70;99.90;;;;;;2079170;28;20028;-72
2023/02/24 00:57:01;;;;;;;109.38;57.15;;;8.70;99.90;;;;;;2077092;28;20709;-72
2023/02/24 00:58:03;;;;;;;110.57;58.35;;;8.70;99.90;;;;;;2074470;28;20029;-72
2023/02/24 00:59:04;;;;;;;105.10;55.80;;;8.60;99.90;;;;;;2073494;28;20025;-72
2023/02/24 01:00:12;;;;;;;103.00;54.63;;;8.60;99.90;;;;;;2073688;28;20036;-72
2023/02/24 01:01:18;;;;;;;106.00;56.55;;;8.60;99.90;;;;;;2073970;28;20033;-72
2023/02/24 01:02:20;;;;;;;100.53;53.00;;;8.70;99.90;;;;;;2093400;28;20032;-72
2023/02/24 01:03:21;;;;;;;101.82;53.47;;;8.70;99.90;;;;;;2079294;28;20459;-72
2023/02/24 01:04:21;;;;;;;104.32;53.55;;;8.70;99.90;;;;;;2074416;28;20372;-72
2023/02/24 01:05:22;;;;;;;96.10;53.15;;;8.70;99.90;;;;;;2099043;28;20080;-72
2023/02/24 01:06:25;;;;;;;98.05;52.65;;;8.60;99.90;;;;;;2092907;28;20024;-71
2023/02/24 01:07:28;;;;;;;96.75;52.35;;;8.60;99.90;;;;;;2072130;28;20450;-71
2023/02/24 01:08:29;;;;;;;91.28;49.33;;;8.60;99.90;;;;;;2076178;28;20059;-71
2023/02/24 01:09:31;;;;;;;93.00;51.38;;;8.60;99.90;;;;;;2082083;28;20048;-71
2023/02/24 01:10:33;;;;;;;91.85;50.78;;;8.60;99.90;;;;;;2080133;28;20037;-71
2023/02/24 01:12:54;;;;;;;93.07;50.20;;;8.60;99.90;;;;;;2092572;28;20086;-71
2023/02/24 01:13:54;;;;;;;93.28;50.60;;;8.60;99.90;;;;;;2084574;28;20092;-71
2023/02/24 01:14:55;;;;;;;89.60;49.58;;;8.60;99.90;;;;;;2071947;28;20490;-69
2023/02/24 01:16:01;;;;;;;92.90;50.30;;;8.60;99.90;;;;;;2067292;28;20049;-70
2023/02/24 01:17:03;;;;;;;88.95;48.67;;;8.60;99.90;;;;;;2079302;28;20029;-71
2023/02/24 01:18:04;;;;;;;91.78;48.53;;;8.50;99.90;;;;;;2084754;28;20036;-71
2023/02/24 01:19:05;;;;;;;86.63;46.90;;;8.50;99.90;;;;;;2068665;28;20029;-71
2023/02/24 01:20:15;;;;;;;86.45;47.47;;;8.50;99.90;;;;;;2068110;28;20464;-70
2023/02/24 01:21:17;;;;;;;;;;;8.50;99.90;;;;;;2087974;28;20032;-71
2023/02/24 01:22:20;;;;;;;85.22;45.30;;;8.50;99.90;;;;;;2087372;28;20390;-71
2023/02/24 01:23:20;;;;;;;78.75;44.70;;;8.50;99.90;;;;;;2071136;28;20025;-71
2023/02/24 01:24:22;;;;;;;86.60;47.05;;;8.50;99.90;;;;;;2073531;28;20489;-71
2023/02/24 01:25:23;;;;;;;83.20;46.45;;;8.50;99.90;;;;;;2079225;28;20020;-71
2023/02/24 01:26:25;;;;;;;80.32;45.60;;;8.40;99.90;;;;;;2081085;28;20108;-70
2023/02/24 01:27:26;;;;;;;82.63;46.03;;;8.40;99.90;;;;;;2074173;28;20110;-71
2023/02/24 01:28:26;;;;;;;81.85;45.50;;;8.40;99.90;;;;;;2084401;28;20549;-71
2023/02/24 01:29:27;;;;;;;82.10;46.03;;;8.40;99.90;;;;;;2073222;28;20095;-71
2023/02/24 01:30:30;;;;;;;78.70;45.33;;;8.40;99.90;;;;;;2067078;28;20087;-71
2023/02/24 01:31:31;;;;;;;80.97;45.03;;;8.40;99.90;;;;;;2077015;28;20083;-70
2023/02/24 01:32:31;;;;;;;83.68;44.80;;;8.40;99.90;;;;;;2083630;28;20099;-70
2023/02/24 01:33:36;;;;;;;78.95;43.67;;;8.40;99.90;;;;;;2092897;28;20027;-70
2023/02/24 01:34:37;;;;;;;79.50;44.42;;;8.30;99.90;;;;;;2092364;28;20032;-71
2023/02/24 01:35:38;;;;;;;81.78;44.08;;;8.30;99.90;;;;;;2076857;28;20029;-70
2023/02/24 01:36:43;;;;;;;77.07;42.75;;;8.30;99.90;;;;;;2081664;28;20128;-71
2023/02/24 01:37:44;;;;;;;78.47;43.45;;;8.30;99.90;;;;;;2076096;28;20042;-84
2023/02/24 01:38:45;;;;;;;76.93;43.50;;;8.30;99.90;;;;;;2073825;28;20064;-71
2023/02/24 01:39:46;;;;;;;75.65;42.67;;;8.30;99.90;;;;;;2087008;28;20070;-75
2023/02/24 01:40:55;;;;;;;77.40;41.97;;;8.30;99.90;;;;;;2093219;28;20098;-79
2023/02/24 01:42:00;;;;;;;68.00;40.10;;;8.30;99.90;;;;;;2087304;28;20024;-78
2023/02/24 01:43:00;;;;;;;70.80;39.83;;;8.30;99.90;;;;;;2085711;28;20040;-77
2023/02/24 01:44:10;;;;;;;67.18;39.30;;;8.30;99.90;;;;;;2074227;28;20033;-77
2023/02/24 01:45:13;;;;;;;69.27;38.93;;;8.30;99.90;;;;;;2070263;28;20068;-78
2023/02/24 01:46:16;;;;;;;63.97;38.05;;;8.30;99.90;;;;;;2076444;28;20921;-77
2023/02/24 01:47:22;;;;;;;66.55;37.95;;;8.30;99.90;;;;;;2077534;28;20063;-78
2023/02/24 01:48:23;;;;;;;62.85;37.40;;;8.30;99.90;;;;;;2079605;28;20063;-80
2023/02/24 01:49:33;;;;;;;61.72;35.92;;;8.30;99.90;;;;;;2092983;28;20090;-77
2023/02/24 01:50:35;;;;;;;61.55;35.65;;;8.30;99.90;;;;;;2080202;28;20111;-78
2023/02/24 01:51:43;;;;;;;63.92;36.50;;;8.30;99.90;;;;;;2076621;28;20034;-77
2023/02/24 01:52:46;;;;;;;57.35;34.75;;;8.30;99.90;;;;;;2075670;28;20740;-79
2023/02/24 01:53:48;;;;;;;58.33;34.75;;;8.30;99.90;;;;;;2068760;28;20029;-77
2023/02/24 01:54:53;;;;;;;57.08;35.08;;;8.20;99.90;;;;;;2076808;28;20037;-77
2023/02/24 01:55:54;;;;;;;56.28;34.00;;;8.30;99.90;;;;;;2086550;28;20020;-77
2023/02/24 01:56:56;;;;;;;55.83;33.70;;;8.20;99.90;;;;;;2090834;28;20031;-78
2023/02/24 01:57:59;;;;;;;54.33;33.15;;;8.20;99.90;;;;;;2084820;28;20116;-78
2023/02/24 01:59:01;;;;;;;53.30;33.22;;;8.20;99.90;;;;;;2076898;28;20080;-78
2023/02/24 02:00:11;;;;;;;51.42;32.35;;;8.20;99.90;;;;;;2076164;28;20485;-78
2023/02/24 02:01:15;;;;;;;54.58;33.17;;;8.30;99.90;;;;;;2075134;28;20192;-78
2023/02/24 02:02:18;;;;;;;49.15;31.48;;;8.30;99.90;;;;;;2090197;28;20127;-76
2023/02/24 02:03:23;;;;;;;52.75;32.03;;;8.20;99.90;;;;;;2094959;28;20032;-78
2023/02/24 02:04:35;;;;;;;50.63;30.85;;;8.20;99.90;;;;;;2078288;28;20037;-77
2023/02/24 02:05:38;;;;;;;51.10;30.15;;;8.20;99.90;;;;;;2074519;28;20024;-78
2023/02/24 02:06:40;;;;;;;48.05;30.73;;;8.20;99.90;;;;;;2068807;28;20531;-77
2023/02/24 02:07:42;;;;;;;46.72;29.77;;;8.20;99.90;;;;;;2076769;28;20083;-79
2023/02/24 02:08:43;;;;;;;48.50;29.35;;;8.20;99.90;;;;;;2084819;28;20033;-76
2023/02/24 02:09:46;;;;;;;48.65;29.65;;;8.20;99.90;;;;;;2087321;28;20111;-77
2023/02/24 02:10:46;;;;;;;44.47;28.27;;;8.20;99.90;;;;;;2078851;28;20429;-77
2023/02/24 02:11:48;;;;;;;45.88;28.70;;;8.20;99.90;;;;;;2093218;28;20607;-78
2023/02/24 02:12:50;;;;;;;43.17;27.63;;;8.20;99.90;;;;;;2093971;28;20118;-79
2023/02/24 02:13:52;;;;;;;42.00;26.88;;;8.20;99.90;;;;;;2078573;28;20483;-77
2023/02/24 02:14:55;;;;;;;40.05;26.98;;;8.20;99.90;;;;;;2079960;28;20072;-78
2023/02/24 02:16:09;;;;;;;50.05;29.63;;;8.20;99.90;;;;;;2075639;28;20060;-78
2023/02/24 02:17:26;;;;;;;46.55;29.52;;;8.20;99.90;;;;;;2075014;28;20056;-78
2023/02/24 02:18:42;;;;;;;45.40;28.27;;;8.20;99.90;;;;;;2075380;28;20033;-78
2023/02/24 02:19:49;;;;;;;44.42;27.17;;;8.20;99.90;;;;;;2077687;28;20051;-78
2023/02/24 02:20:58;;;;;;;48.20;28.73;;;8.20;99.90;;;;;;2078698;28;20071;-77
2023/02/24 02:22:04;;;;;;;45.88;28.50;;;8.20;99.90;;;;;;2078315;28;20040;-77
2023/02/24 02:23:18;;;;;;;41.25;27.50;;;8.20;99.90;;;;;;2086125;28;20025;-77
2023/02/24 02:24:40;;;;;;;44.05;28.17;;;8.20;99.90;;;;;;2099415;28;20496;-78
2023/02/24 02:26:31;;;;;;;47.85;28.63;;;8.20;99.90;;;;;;2090881;28;20439;-77
2023/02/24 02:27:48;;;;;;;46.35;27.65;;;8.20;99.90;;;;;;2076521;28;20097;-78
2023/02/24 02:29:07;;;;;;;45.10;27.50;;;8.20;99.90;;;;;;2079748;28;20044;-77
2023/02/24 02:30:42;;;;;;;39.80;25.50;;;8.10;99.90;;;;;;2079303;28;20040;-78
2023/02/24 02:32:11;;;;;;;43.08;26.65;;;8.20;99.90;;;;;;2075115;28;20098;-77
2023/02/24 02:33:46;;;;;;;44.25;27.48;;;8.20;99.90;;;;;;2084773;28;20105;-77
2023/02/24 02:35:19;;;;;;;41.08;25.80;;;8.10;99.90;;;;;;2083039;28;20370;-78
2023/02/24 02:36:36;;;;;;;45.55;27.42;;;8.10;99.90;;;;;;2070759;28;20029;-77
2023/02/24 02:37:58;;;;;;;45.80;28.67;;;8.10;99.90;;;;;;2092998;28;20059;-78
2023/02/24 02:39:19;;;;;;;43.47;27.52;;;8.10;99.90;;;;;;2090256;28;20032;-77
2023/02/24 02:40:24;;;;;;;41.10;26.27;;;8.10;99.90;;;;;;2070757;28;20037;-78
2023/02/24 02:41:35;;;;;;;46.60;27.20;;;8.10;99.90;;;;;;2071933;28;20033;-77
2023/02/24 02:42:44;;;;;;;42.72;27.13;;;8.10;99.90;;;;;;2080112;28;20067;-78
2023/02/24 02:44:13;;;;;;;43.22;26.58;;;8.00;99.90;;;;;;2079218;28;20064;-78
2023/02/24 02:45:28;;;;;;;44.13;25.85;;;8.10;99.90;;;;;;2071016;28;20029;-76
2023/02/24 02:46:33;;;;;;;40.38;25.23;;;8.00;99.90;;;;;;2094379;28;20537;-77
2023/02/24 02:47:43;;;;;;;40.72;25.38;;;8.10;99.90;;;;;;2085955;28;20665;-78
2023/02/24 02:48:50;;;;;;;44.72;26.27;;;8.00;99.90;;;;;;2077728;28;20022;-76
2023/02/24 02:50:25;;;;;;;45.38;26.50;;;8.00;99.90;;;;;;2080258;28;20017;-79
2023/02/24 02:51:37;;;;;;;39.90;24.95;;;8.00;99.90;;;;;;2076827;28;20400;-78
2023/02/24 02:52:46;;;;;;;41.22;25.08;;;7.90;99.90;;;;;;2075052;28;20031;-79
2023/02/24 02:54:03;;;;;;;42.50;25.20;;;7.90;99.90;;;;;;2087166;28;20029;-79
2023/02/24 02:55:17;;;;;;;41.92;25.20;;;7.90;99.90;;;;;;2088676;28;20039;-79
2023/02/24 02:56:30;;;;;;;42.13;25.55;;;8.00;99.90;;;;;;2078866;28;20118;-77
2023/02/24 02:57:33;;;;;;;42.58;25.40;;;8.00;99.90;;;;;;2079296;28;20526;-79
2023/02/24 02:58:38;;;;;;;40.63;24.85;;;7.90;99.90;;;;;;2080469;28;20025;-77
2023/02/24 02:59:48;;;;;;;42.47;26.23;;;7.90;99.90;;;;;;2080390;28;20025;-78
2023/02/24 03:01:00;;;;;;;42.92;26.13;;;7.90;99.90;;;;;;2076401;28;20055;-77
2023/02/24 03:02:13;;;;;;;43.20;25.80;;;7.90;99.90;;;;;;2083275;28;20098;-77
2023/02/24 03:03:17;;;;;;;45.10;25.60;;;7.90;99.90;;;;;;2075673;28;20120;-77
2023/02/24 03:04:21;;;;;;;41.50;26.15;;;7.90;99.90;;;;;;2087434;28;20020;-77
2023/02/24 03:05:35;;;;;;;44.22;26.80;;;7.90;99.90;;;;;;2086757;28;20554;-78
2023/02/24 03:06:46;;;;;;;48.53;27.42;;;7.90;99.90;;;;;;2088473;28;20563;-79
2023/02/24 03:07:52;;;;;;;46.00;25.92;;;7.90;99.90;;;;;;2091883;28;20040;-77
2023/02/24 03:08:58;;;;;;;42.95;25.70;;;7.80;99.90;;;;;;2095324;28;20043;-77
2023/02/24 03:10:04;;;;;;;40.83;25.20;;;7.80;99.90;;;;;;2094295;28;20074;-77
2023/02/24 03:11:12;;;;;;;39.25;24.00;;;7.80;99.90;;;;;;2079712;28;20025;-78
2023/02/24 03:12:17;;;;;;;35.15;21.40;;;7.80;99.90;;;;;;2087560;28;20044;-78
2023/02/24 03:13:22;;;;;;;35.25;21.08;;;7.70;99.90;;;;;;2086562;28;20039;-78
2023/02/24 03:14:28;;;;;;;35.15;20.90;;;7.70;99.90;;;;;;2089536;28;20033;-79
2023/02/24 03:15:32;;;;;;;32.65;19.23;;;7.70;99.90;;;;;;2083714;28;20050;-78
2023/02/24 03:16:34;;;;;;;30.15;17.90;;;7.70;99.90;;;;;;2087519;28;20551;-77
2023/02/24 03:17:39;;;;;;;31.58;18.65;;;7.70;99.90;;;;;;2085729;28;20056;-78
2023/02/24 03:18:49;;;;;;;28.98;17.45;;;7.80;99.90;;;;;;2077359;28;20029;-79
2023/02/24 03:19:59;;;;;;;30.52;17.77;;;7.70;99.90;;;;;;2077838;28;20029;-77
2023/02/24 03:21:08;;;;;;;33.22;18.40;;;7.70;99.90;;;;;;2078088;28;22108;-77
2023/02/24 03:22:13;;;;;;;30.45;17.52;;;7.70;99.90;;;;;;2077755;28;20040;-79
2023/02/24 03:23:29;;;;;;;32.20;17.70;;;7.60;99.90;;;;;;2086467;28;20093;-77
2023/02/24 03:24:30;;;;;;;27.73;16.38;;;7.60;99.90;;;;;;2088114;28;20494;-78
2023/02/24 03:25:52;;;;;;;32.58;17.48;;;7.60;99.90;;;;;;2083857;28;20546;-77
2023/02/24 03:27:07;;;;;;;27.70;15.93;;;7.60;99.90;;;;;;2082345;28;20041;-78
2023/02/24 03:28:19;;;;;;;29.33;16.35;;;7.60;99.90;;;;;;2075496;28;20025;-78
2023/02/24 03:29:38;;;;;;;29.15;16.75;;;7.60;99.90;;;;;;2069686;28;20117;-77
2023/02/24 03:30:45;;;;;;;32.80;16.77;;;7.60;99.90;;;;;;2087243;28;20025;-79
2023/02/24 03:32:03;;;;;;;32.13;17.98;;;7.50;99.90;;;;;;2084937;28;20047;-76
2023/02/24 03:33:15;;;;;;;31.52;17.40;;;7.50;99.90;;;;;;2080722;28;20036;-78
2023/02/24 03:34:26;;;;;;;35.33;18.00;;;7.50;99.90;;;;;;2077677;28;20037;-78
2023/02/24 03:35:29;;;;;;;33.50;18.00;;;7.50;99.90;;;;;;2079242;28;20064;-76
2023/02/24 03:36:31;;;;;;;35.72;18.83;;;7.50;99.90;;;;;;2080338;28;20041;-78
2023/02/24 03:37:32;;;;;;;32.88;18.60;;;7.40;99.90;;;;;;2074915;28;20661;-79
2023/02/24 03:38:37;;;;;;;33.05;18.10;;;7.40;99.90;;;;;;2076202;28;20026;-76
2023/02/24 03:39:38;;;;;;;33.88;17.50;;;7.40;99.90;;;;;;2077701;28;20152;-78
2023/02/24 03:40:45;;;;;;;37.15;19.33;;;7.40;99.90;;;;;;2081998;28;20381;-79
2023/02/24 03:42:12;;;;;;;36.60;18.25;;;7.40;99.90;;;;;;2079366;28;20470;-78
2023/02/24 03:43:44;;;;;;;40.53;19.65;;;7.40;99.90;;;;;;2075872;28;20040;-78
2023/02/24 03:44:45;;;;;;;37.30;19.45;;;7.40;99.90;;;;;;2067385;28;20042;-77
2023/02/24 03:45:47;;;;;;;37.50;19.60;;;7.40;99.90;;;;;;2061338;28;20030;-77
2023/02/24 03:46:48;;;;;;;37.97;20.58;;;7.40;99.90;;;;;;2088686;28;20028;-77
2023/02/24 03:47:52;;;;;;;37.25;19.90;;;7.40;99.90;;;;;;2085688;28;20329;-78
2023/02/24 03:49:07;;;;;;;42.17;20.58;;;7.40;99.90;;;;;;2077613;28;20030;-77
2023/02/24 03:50:19;;;;;;;37.05;19.23;;;7.40;99.90;;;;;;2089735;28;20024;-78
2023/02/24 03:51:26;;;;;;;38.13;19.55;;;7.40;99.90;;;;;;2076899;28;20057;-77
2023/02/24 03:52:46;;;;;;;35.05;18.38;;;7.40;99.90;;;;;;2072669;28;20403;-79
2023/02/24 03:54:18;;;;;;;38.03;20.40;;;7.40;99.90;;;;;;2078962;28;20025;-76
2023/02/24 03:55:37;;;;;;;37.38;19.35;;;7.40;99.90;;;;;;2081757;28;20387;-79
2023/02/24 03:57:12;;;;;;;40.90;19.95;;;7.30;99.90;;;;;;2083289;28;20020;-79
2023/02/24 03:58:21;;;;;;;34.38;18.33;;;7.30;99.90;;;;;;2072458;28;20095;-78
2023/02/24 03:59:33;;;;;;;35.75;18.70;;;7.30;99.90;;;;;;2076930;28;20427;-78
2023/02/24 04:00:54;;;;;;;34.83;17.58;;;7.20;99.90;;;;;;2086496;28;20457;-78
2023/02/24 04:02:13;;;;;;;35.58;17.92;;;7.20;99.90;;;;;;2083121;28;20055;-78
2023/02/24 04:03:48;;;;;;;31.33;16.83;;;7.20;99.90;;;;;;2094490;28;20098;-79
2023/02/24 04:05:20;;;;;;;33.80;17.02;;;7.20;99.90;;;;;;2077018;28;20080;-77
2023/02/24 04:06:45;;;;;;;31.08;15.70;;;7.10;99.90;;;;;;2076245;28;20032;-77
2023/02/24 04:08:00;;;;;;;33.03;16.38;;;7.10;99.90;;;;;;2078137;28;20665;-76
2023/02/24 04:09:12;;;;;;;31.85;16.17;;;7.10;99.90;;;;;;2085940;28;20594;-78
2023/02/24 04:10:30;;;;;;;34.53;16.55;;;7.00;99.90;;;;;;2085291;28;20161;-78
2023/02/24 04:11:55;;;;;;;32.65;16.35;;;7.00;99.90;;;;;;2073403;28;20037;-79
2023/02/24 04:13:09;;;;;;;31.70;16.17;;;7.00;99.90;;;;;;2073598;28;20033;-77
2023/02/24 04:14:18;;;;;;;35.47;16.27;;;7.00;99.90;;;;;;2080024;28;20366;-79
2023/02/24 04:15:28;;;;;;;37.05;18.77;;;7.00;99.90;;;;;;2071524;28;20045;-77
2023/02/24 04:16:44;;;;;;;37.03;18.00;;;7.10;99.90;;;;;;2076124;28;20536;-79
2023/02/24 04:17:50;;;;;;;37.92;18.20;;;7.00;99.90;;;;;;2070418;28;20107;-77
2023/02/24 04:18:51;;;;;;;35.38;18.60;;;7.00;99.90;;;;;;2067300;28;20045;-78
2023/02/24 04:19:57;;;;;;;36.17;17.73;;;7.00;99.90;;;;;;2085358;28;20496;-77
2023/02/24 04:21:01;;;;;;;30.08;15.55;;;7.00;99.90;;;;;;2088233;28;20043;-77
2023/02/24 04:22:04;;;;;;;29.75;15.55;;;7.00;99.90;;;;;;2091407;28;20038;-78
2023/02/24 04:23:13;;;;;;;35.40;17.00;;;7.00;99.90;;;;;;2081703;28;20504;-78
2023/02/24 04:24:18;;;;;;;30.10;15.27;;;7.00;99.90;;;;;;2087471;28;20103;-78
2023/02/24 04:25:23;;;;;;;29.67;14.82;;;6.90;99.90;;;;;;2083483;28;20108;-78
2023/02/24 04:26:26;;;;;;;28.30;15.05;;;6.90;99.90;;;;;;2069930;28;20482;-78
2023/02/24 04:27:29;;;;;;;26.55;14.18;;;6.90;99.90;;;;;;2081652;28;20575;-79
2023/02/24 04:28:39;;;;;;;32.20;16.13;;;6.90;99.90;;;;;;2079275;28;20059;-79
2023/02/24 04:29:47;;;;;;;33.70;16.27;;;6.90;99.90;;;;;;2082146;28;20071;-78
2023/02/24 04:30:53;;;;;;;29.70;15.23;;;6.90;99.90;;;;;;2067969;28;20120;-79
2023/02/24 04:31:58;;;;;;;34.72;16.38;;;6.90;99.90;;;;;;2067372;28;20820;-79
2023/02/24 04:32:59;;;;;;;30.50;16.15;;;6.90;99.90;;;;;;2079041;28;20539;-79
2023/02/24 04:34:00;;;;;;;33.05;16.65;;;6.90;99.90;;;;;;2086631;28;20025;-79
2023/02/24 04:35:12;;;;;;;35.00;16.98;;;6.90;99.90;;;;;;2079373;28;20091;-78
2023/02/24 04:36:18;;;;;;;32.28;16.20;;;6.90;99.90;;;;;;2079158;28;20030;-78
2023/02/24 04:37:21;;;;;;;33.10;16.67;;;7.00;99.90;;;;;;2076111;28;20445;-78
2023/02/24 04:38:22;;;;;;;32.70;16.38;;;6.90;99.90;;;;;;2089358;28;20506;-78
2023/02/24 04:39:23;;;;;;;37.60;18.63;;;6.90;99.90;;;;;;2091678;28;20163;-78
2023/02/24 04:40:28;;;;;;;32.35;16.90;;;7.00;99.90;;;;;;2087619;28;20078;-78
2023/02/24 04:41:28;;;;;;;37.55;18.70;;;7.00;99.90;;;;;;2073815;28;20516;-78
2023/02/24 04:42:29;;;;;;;40.67;18.58;;;7.00;99.90;;;;;;2075249;28;20625;-79
2023/02/24 04:43:29;;;;;;;36.40;18.05;;;7.00;99.90;;;;;;2081601;28;20083;-78
2023/02/24 04:44:31;;;;;;;41.25;19.42;;;7.00;99.90;;;;;;2081149;28;20029;-78
2023/02/24 04:45:32;;;;;;;38.38;20.13;;;7.00;99.90;;;;;;2076471;28;20044;-78
2023/02/24 04:46:33;;;;;;;33.72;18.02;;;7.00;99.90;;;;;;2079290;28;20563;-78
2023/02/24 04:47:36;;;;;;;41.35;19.20;;;6.90;99.90;;;;;;2077743;28;20049;-80
2023/02/24 04:48:37;;;;;;;39.80;19.35;;;6.90;99.90;;;;;;2078685;28;20736;-78
2023/02/24 04:49:39;;;;;;;42.15;18.98;;;6.90;99.90;;;;;;2075511;28;20033;-79
2023/02/24 04:50:42;;;;;;;42.13;19.52;;;6.90;99.90;;;;;;2077507;28;20033;-77
2023/02/24 04:51:43;;;;;;;44.95;19.95;;;6.90;99.90;;;;;;2084737;28;20107;-78
2023/02/24 04:52:52;;;;;;;42.03;19.83;;;6.90;99.90;;;;;;2082385;28;20177;-78
2023/02/24 04:53:54;;;;;;;39.40;18.73;;;6.90;99.90;;;;;;2077219;28;20063;-83
2023/02/24 04:54:54;;;;;;;39.72;19.42;;;6.90;99.90;;;;;;2074923;28;20033;-82
2023/02/24 04:55:55;;;;;;;40.95;19.27;;;6.90;99.90;;;;;;2079701;28;20064;-82
2023/02/24 04:56:55;;;;;;;35.92;17.95;;;6.90;99.90;;;;;;2077226;28;20033;-82
2023/02/24 04:57:57;;;;;;;45.45;21.05;;;6.90;99.90;;;;;;2070865;28;20568;-84
2023/02/24 04:58:57;;;;;;;45.13;20.70;;;6.90;99.90;;;;;;2072002;28;20040;-85
2023/02/24 04:59:58;;;;;;;40.10;19.10;;;6.90;99.90;;;;;;2067147;28;20061;-84
2023/02/24 05:00:59;;;;;;;40.53;19.10;;;6.90;99.90;;;;;;2075469;28;20182;-84
2023/02/24 05:02:00;;;;;;;43.25;20.27;;;6.90;99.90;;;;;;2078625;28;20025;-83
2023/02/24 05:03:03;;;;;;;41.13;19.88;;;6.90;99.90;;;;;;2094525;28;20074;-82
2023/02/24 05:04:04;;;;;;;38.42;19.33;;;6.90;99.90;;;;;;2092895;28;20119;-83
2023/02/24 05:05:07;;;;;;;38.78;18.52;;;6.90;99.90;;;;;;2074737;28;20030;-83
2023/02/24 05:06:14;;;;;;;36.30;18.65;;;6.90;99.90;;;;;;2081444;28;20036;-84
2023/02/24 05:07:15;;;;;;;40.65;20.27;;;7.00;99.90;;;;;;2081685;28;20070;-83
2023/02/24 05:08:16;;;;;;;38.95;20.30;;;7.00;99.90;;;;;;2083882;28;20063;-83
2023/02/24 05:09:17;;;;;;;42.53;21.27;;;6.90;99.90;;;;;;2079515;28;20156;-83
2023/02/24 05:10:18;;;;;;;45.15;21.58;;;7.00;99.90;;;;;;2096493;28;20035;-83
2023/02/24 05:11:19;;;;;;;40.47;20.30;;;7.00;99.90;;;;;;2093131;28;20036;-82
2023/02/24 05:12:20;;;;;;;43.42;21.98;;;7.00;99.90;;;;;;2096205;28;20070;-83
2023/02/24 05:13:26;;;;;;;41.83;20.83;;;6.90;99.90;;;;;;2090911;28;20032;-83
2023/02/24 05:14:27;;;;;;;47.03;21.48;;;7.00;99.90;;;;;;2081412;28;20032;-82
2023/02/24 05:15:31;;;;;;;42.13;20.02;;;6.90;99.90;;;;;;2077557;28;20061;-81
2023/02/24 05:16:32;;;;;;;44.78;20.55;;;6.90;99.90;;;;;;2083610;28;20033;-81
2023/02/24 05:17:34;;;;;;;44.65;20.90;;;6.90;99.90;;;;;;2083127;28;20028;-79
2023/02/24 05:18:35;;;;;;;44.03;21.05;;;6.90;99.90;;;;;;2085494;28;20091;-81
2023/02/24 05:22:16;;;;;;;43.70;20.42;;;6.90;99.90;;;;;;2077237;28;20087;-80
2023/02/24 05:23:17;;;;;;;43.30;20.65;;;6.90;99.90;;;;;;2073600;28;20029;-82
2023/02/24 05:24:17;;;;;;;42.95;20.75;;;6.90;99.90;;;;;;2086118;28;20479;-80
2023/02/24 05:25:19;;;;;;;43.22;19.80;;;6.90;99.90;;;;;;2096020;28;20028;-82
2023/02/24 05:26:24;;;;;;;44.83;20.23;;;6.90;99.90;;;;;;2073716;28;20048;-80
2023/02/24 05:27:26;;;;;;;42.80;19.98;;;6.90;99.90;;;;;;2079299;28;20514;-79
2023/02/24 05:28:31;;;;;;;44.22;20.77;;;6.90;99.90;;;;;;2081845;28;20025;-79
2023/02/24 05:29:33;;;;;;;42.75;19.60;;;6.90;99.90;;;;;;2076532;28;20496;-79
2023/02/24 05:30:34;;;;;;;38.90;18.95;;;6.90;99.90;;;;;;2081308;28;20029;-78
2023/02/24 05:31:36;;;;;;;37.58;18.10;;;6.90;99.90;;;;;;2077833;28;20064;-80
2023/02/24 05:32:37;;;;;;;36.00;16.60;;;6.90;99.90;;;;;;2078910;28;20028;-80
2023/02/24 05:33:38;;;;;;;30.55;15.00;;;6.90;99.90;;;;;;2072695;28;20029;-79
2023/02/24 05:34:38;;;;;;;24.40;12.75;;;6.90;99.90;;;;;;2072012;28;20037;-80
2023/02/24 05:35:39;;;;;;;26.17;12.90;;;6.80;99.90;;;;;;2090948;28;20124;-77
2023/02/24 05:36:40;;;;;;;23.88;11.88;;;6.80;99.90;;;;;;2093071;28;20032;-79
2023/02/24 05:37:40;;;;;;;23.00;11.02;;;6.80;99.90;;;;;;2074931;28;20029;-78
2023/02/24 05:38:45;;;;;;;21.38;10.48;;;6.70;99.90;;;;;;2078763;28;20742;-78
2023/02/24 05:39:46;;;;;;;21.00;10.30;;;6.70;99.90;;;;;;2076134;28;20038;-77
2023/02/24 05:40:47;;;;;;;19.27;10.40;;;6.70;99.90;;;;;;2081495;28;20106;-77
2023/02/24 05:41:48;;;;;;;21.27;9.57;;;6.60;99.90;;;;;;2079899;28;20033;-78
2023/02/24 05:42:50;;;;;;;19.10;10.10;;;6.60;99.90;;;;;;2073346;28;20052;-79
2023/02/24 05:43:55;;;;;;;18.67;9.52;;;6.60;99.90;;;;;;2074371;28;20033;-78